sensor_id;sensor_type;location;lat;lon;timestamp;temperature;humidity
26703;DHT22;14316;51.074;3.704;2022-07-12T00:01:08;20.10;99.90
26703;DHT22;14316;51.074;3.704;2022-07-12T00:03:33;20.10;99.90
26703;DHT22;14316;51.074;3.704;2022-07-12T00:06:00;20.10;99.90
26703;DHT22;14316;51.074;3.704;2022-07-12T00:08:25;20.10;99.90
26703;DHT22;14316;51.074;3.704;2022-07-12T00:10:51;20.10;99.90
26703;DHT22;14316;51.074;3.704;2022-07-12T00:13:17;20.10;99.90
26703;DHT22;14316;51.074;3.704;2022-07-12T00:15:43;19.90;99.90
26703;DHT22;14316;51.074;3.704;2022-07-12T00:18:08;19.90;99.90
26703;DHT22;14316;51.074;3.704;2022-07-12T00:20:35;19.80;99.90
26703;DHT22;14316;51.074;3.704;2022-07-12T00:23:00;19.70;99.90
26703;DHT22;14316;51.074;3.704;2022-07-12T00:25:26;19.70;99.90
26703;DHT22;14316;51.074;3.704;2022-07-12T00:27:52;19.60;99.90
26703;DHT22;14316;51.074;3.704;2022-07-12T00:30:18;19.50;99.90
26703;DHT22;14316;51.074;3.704;2022-07-12T00:32:43;19.50;99.90
26703;DHT22;14316;51.074;3.704;2022-07-12T00:35:09;19.60;99.90
26703;DHT22;14316;51.074;3.704;2022-07-12T00:37:34;19.70;99.90
26703;DHT22;14316;51.074;3.704;2022-07-12T00:40:00;19.80;99.90
26703;DHT22;14316;51.074;3.704;2022-07-12T00:42:26;19.90;99.90
26703;DHT22;14316;51.074;3.704;2022-07-12T00:44:52;20.00;99.90
26703;DHT22;14316;51.074;3.704;2022-07-12T00:47:19;19.80;99.90
26703;DHT22;14316;51.074;3.704;2022-07-12T00:49:47;19.60;99.90
26703;DHT22;14316;51.074;3.704;2022-07-12T00:52:15;19.60;99.90
26703;DHT22;14316;51.074;3.704;2022-07-12T00:54:41;19.50;99.90
26703;DHT22;14316;51.074;3.704;2022-07-12T00:57:08;19.40;99.90
26703;DHT22;14316;51.074;3.704;2022-07-12T00:59:33;19.40;99.90
26703;DHT22;14316;51.074;3.704;2022-07-12T01:01:59;20.40;99.90
26703;DHT22;14316;51.074;3.704;2022-07-12T01:04:24;18.80;99.90
26703;DHT22;14316;51.074;3.704;2022-07-12T01:06:50;19.30;99.90
26703;DHT22;14316;51.074;3.704;2022-07-12T01:09:16;19.20;99.90
26703;DHT22;14316;51.074;3.704;2022-07-12T01:11:41;19.30;99.90
26703;DHT22;14316;51.074;3.704;2022-07-12T01:14:08;19.30;99.90
26703;DHT22;14316;51.074;3.704;2022-07-12T01:16:33;19.40;99.90
26703;DHT22;14316;51.074;3.704;2022-07-12T01:18:59;19.40;99.90
26703;DHT22;14316;51.074;3.704;2022-07-12T01:21:25;19.30;99.90
26703;DHT22;14316;51.074;3.704;2022-07-12T01:23:53;19.30;99.90
26703;DHT22;14316;51.074;3.704;2022-07-12T01:26:19;19.20;99.90
26703;DHT22;14316;51.074;3.704;2022-07-12T01:28:44;19.30;99.90
26703;DHT22;14316;51.074;3.704;2022-07-12T01:31:11;19.40;99.90
26703;DHT22;14316;51.074;3.704;2022-07-12T01:33:36;19.60;99.90
26703;DHT22;14316;51.074;3.704;2022-07-12T01:36:02;19.60;99.90
26703;DHT22;14316;51.074;3.704;2022-07-12T01:38:28;19.60;99.90
26703;DHT22;14316;51.074;3.704;2022-07-12T01:40:53;19.60;99.90
26703;DHT22;14316;51.074;3.704;2022-07-12T01:43:19;19.50;99.90
26703;DHT22;14316;51.074;3.704;2022-07-12T01:45:45;19.50;99.90
26703;DHT22;14316;51.074;3.704;2022-07-12T01:48:10;19.40;99.90
26703;DHT22;14316;51.074;3.704;2022-07-12T01:50:36;19.30;99.90
26703;DHT22;14316;51.074;3.704;2022-07-12T01:53:02;19.40;99.90
26703;DHT22;14316;51.074;3.704;2022-07-12T01:55:30;19.40;99.90
26703;DHT22;14316;51.074;3.704;2022-07-12T01:57:56;18.60;99.90
26703;DHT22;14316;51.074;3.704;2022-07-12T02:00:23;19.30;99.90
26703;DHT22;14316;51.074;3.704;2022-07-12T02:02:48;19.40;99.90
26703;DHT22;14316;51.074;3.704;2022-07-12T02:05:14;19.40;99.90
26703;DHT22;14316;51.074;3.704;2022-07-12T02:07:40;19.30;99.90
26703;DHT22;14316;51.074;3.704;2022-07-12T02:10:06;19.20;99.90
26703;DHT22;14316;51.074;3.704;2022-07-12T02:12:33;19.20;99.90
26703;DHT22;14316;51.074;3.704;2022-07-12T02:14:59;19.00;99.90
26703;DHT22;14316;51.074;3.704;2022-07-12T02:17:25;18.80;99.90
26703;DHT22;14316;51.074;3.704;2022-07-12T02:19:51;18.60;99.90
26703;DHT22;14316;51.074;3.704;2022-07-12T02:22:16;18.50;99.90
26703;DHT22;14316;51.074;3.704;2022-07-12T02:24:42;18.50;99.90
26703;DHT22;14316;51.074;3.704;2022-07-12T02:27:07;18.40;99.90
26703;DHT22;14316;51.074;3.704;2022-07-12T02:29:33;18.40;99.90
26703;DHT22;14316;51.074;3.704;2022-07-12T02:31:58;18.30;99.90
26703;DHT22;14316;51.074;3.704;2022-07-12T02:34:24;18.30;99.90
26703;DHT22;14316;51.074;3.704;2022-07-12T02:36:49;18.30;99.90
26703;DHT22;14316;51.074;3.704;2022-07-12T02:39:15;18.20;99.90
26703;DHT22;14316;51.074;3.704;2022-07-12T02:41:40;18.20;99.90
26703;DHT22;14316;51.074;3.704;2022-07-12T02:44:06;18.10;99.90
26703;DHT22;14316;51.074;3.704;2022-07-12T02:46:32;18.10;99.90
26703;DHT22;14316;51.074;3.704;2022-07-12T02:48:58;18.00;99.90
26703;DHT22;14316;51.074;3.704;2022-07-12T02:51:23;18.00;99.90
26703;DHT22;14316;51.074;3.704;2022-07-12T02:53:49;17.90;99.90
26703;DHT22;14316;51.074;3.704;2022-07-12T02:56:15;17.90;99.90
26703;DHT22;14316;51.074;3.704;2022-07-12T02:58:40;17.80;99.90
26703;DHT22;14316;51.074;3.704;2022-07-12T03:01:06;17.80;99.90
26703;DHT22;14316;51.074;3.704;2022-07-12T03:03:31;17.90;99.90
26703;DHT22;14316;51.074;3.704;2022-07-12T03:05:57;18.00;99.90
26703;DHT22;14316;51.074;3.704;2022-07-12T03:08:24;18.00;99.90
26703;DHT22;14316;51.074;3.704;2022-07-12T03:10:49;17.90;99.90
26703;DHT22;14316;51.074;3.704;2022-07-12T03:13:15;17.80;99.90
26703;DHT22;14316;51.074;3.704;2022-07-12T03:15:40;17.80;99.90
26703;DHT22;14316;51.074;3.704;2022-07-12T03:18:06;17.70;99.90
26703;DHT22;14316;51.074;3.704;2022-07-12T03:20:31;17.70;99.90
26703;DHT22;14316;51.074;3.704;2022-07-12T03:22:57;17.60;99.90
26703;DHT22;14316;51.074;3.704;2022-07-12T03:25:23;17.50;99.90
26703;DHT22;14316;51.074;3.704;2022-07-12T03:27:49;17.50;99.90
26703;DHT22;14316;51.074;3.704;2022-07-12T03:30:15;17.50;99.90
26703;DHT22;14316;51.074;3.704;2022-07-12T03:32:41;17.60;99.90
26703;DHT22;14316;51.074;3.704;2022-07-12T03:35:07;17.70;99.90
26703;DHT22;14316;51.074;3.704;2022-07-12T03:37:40;17.70;99.90
26703;DHT22;14316;51.074;3.704;2022-07-12T03:40:06;17.70;99.90
26703;DHT22;14316;51.074;3.704;2022-07-12T03:42:31;17.80;99.90
26703;DHT22;14316;51.074;3.704;2022-07-12T03:44:57;17.80;99.90
26703;DHT22;14316;51.074;3.704;2022-07-12T03:47:23;17.70;99.90
26703;DHT22;14316;51.074;3.704;2022-07-12T03:49:48;17.70;99.90
26703;DHT22;14316;51.074;3.704;2022-07-12T03:52:14;17.60;99.90
26703;DHT22;14316;51.074;3.704;2022-07-12T03:54:40;17.50;99.90
26703;DHT22;14316;51.074;3.704;2022-07-12T03:57:06;17.40;99.90
26703;DHT22;14316;51.074;3.704;2022-07-12T03:59:41;17.30;99.90
26703;DHT22;14316;51.074;3.704;2022-07-12T04:02:07;17.30;99.90
26703;DHT22;14316;51.074;3.704;2022-07-12T04:04:32;17.30;99.90
26703;DHT22;14316;51.074;3.704;2022-07-12T04:06:58;17.20;99.90
26703;DHT22;14316;51.074;3.704;2022-07-12T04:09:24;17.20;99.90
26703;DHT22;14316;51.074;3.704;2022-07-12T04:11:49;17.30;99.90
26703;DHT22;14316;51.074;3.704;2022-07-12T04:14:15;17.30;99.90
26703;DHT22;14316;51.074;3.704;2022-07-12T04:16:40;17.40;99.90
26703;DHT22;14316;51.074;3.704;2022-07-12T04:19:06;17.50;99.90
26703;DHT22;14316;51.074;3.704;2022-07-12T04:21:34;17.60;99.90
26703;DHT22;14316;51.074;3.704;2022-07-12T04:24:00;17.70;99.90
26703;DHT22;14316;51.074;3.704;2022-07-12T04:26:25;17.80;99.90
26703;DHT22;14316;51.074;3.704;2022-07-12T04:28:51;18.00;99.90
26703;DHT22;14316;51.074;3.704;2022-07-12T04:31:16;18.40;99.90
26703;DHT22;14316;51.074;3.704;2022-07-12T04:33:42;18.80;99.90
26703;DHT22;14316;51.074;3.704;2022-07-12T04:36:08;18.90;99.90
26703;DHT22;14316;51.074;3.704;2022-07-12T04:38:33;18.90;99.90
26703;DHT22;14316;51.074;3.704;2022-07-12T04:40:59;19.00;99.90
26703;DHT22;14316;51.074;3.704;2022-07-12T04:43:24;19.20;99.90
26703;DHT22;14316;51.074;3.704;2022-07-12T04:45:50;19.30;99.90
26703;DHT22;14316;51.074;3.704;2022-07-12T04:48:16;19.40;99.90
26703;DHT22;14316;51.074;3.704;2022-07-12T04:50:42;19.60;99.90
26703;DHT22;14316;51.074;3.704;2022-07-12T04:53:08;19.70;99.90
26703;DHT22;14316;51.074;3.704;2022-07-12T04:55:33;19.80;99.90
26703;DHT22;14316;51.074;3.704;2022-07-12T04:57:59;20.00;99.90
26703;DHT22;14316;51.074;3.704;2022-07-12T05:00:25;20.10;99.90
26703;DHT22;14316;51.074;3.704;2022-07-12T05:02:51;20.20;99.90
26703;DHT22;14316;51.074;3.704;2022-07-12T05:05:16;20.20;99.90
26703;DHT22;14316;51.074;3.704;2022-07-12T05:07:42;20.30;99.90
26703;DHT22;14316;51.074;3.704;2022-07-12T05:10:08;20.30;99.90
26703;DHT22;14316;51.074;3.704;2022-07-12T05:12:34;20.50;99.90
26703;DHT22;14316;51.074;3.704;2022-07-12T05:14:59;20.50;99.90
26703;DHT22;14316;51.074;3.704;2022-07-12T05:17:25;20.50;99.90
26703;DHT22;14316;51.074;3.704;2022-07-12T05:19:50;20.40;99.90
26703;DHT22;14316;51.074;3.704;2022-07-12T05:22:16;20.40;99.90
26703;DHT22;14316;51.074;3.704;2022-07-12T05:24:42;20.40;99.90
26703;DHT22;14316;51.074;3.704;2022-07-12T05:27:07;20.40;99.90
26703;DHT22;14316;51.074;3.704;2022-07-12T05:29:33;20.20;99.90
26703;DHT22;14316;51.074;3.704;2022-07-12T05:31:59;20.10;99.90
26703;DHT22;14316;51.074;3.704;2022-07-12T05:34:27;20.10;99.90
26703;DHT22;14316;51.074;3.704;2022-07-12T05:36:52;20.50;99.90
26703;DHT22;14316;51.074;3.704;2022-07-12T05:39:18;20.60;99.90
26703;DHT22;14316;51.074;3.704;2022-07-12T05:41:44;20.70;99.90
26703;DHT22;14316;51.074;3.704;2022-07-12T05:44:09;20.70;99.90
26703;DHT22;14316;51.074;3.704;2022-07-12T05:46:35;20.70;99.90
26703;DHT22;14316;51.074;3.704;2022-07-12T05:49:02;20.80;99.90
26703;DHT22;14316;51.074;3.704;2022-07-12T05:51:27;20.80;99.90
26703;DHT22;14316;51.074;3.704;2022-07-12T05:54:12;20.80;99.90
26703;DHT22;14316;51.074;3.704;2022-07-12T05:56:37;20.70;99.90
26703;DHT22;14316;51.074;3.704;2022-07-12T05:59:06;20.70;99.90
26703;DHT22;14316;51.074;3.704;2022-07-12T06:01:32;20.80;99.90
26703;DHT22;14316;51.074;3.704;2022-07-12T06:03:58;20.70;99.90
26703;DHT22;14316;51.074;3.704;2022-07-12T06:06:23;20.80;99.90
26703;DHT22;14316;51.074;3.704;2022-07-12T06:08:49;20.90;99.90
26703;DHT22;14316;51.074;3.704;2022-07-12T06:11:15;21.00;99.90
26703;DHT22;14316;51.074;3.704;2022-07-12T06:13:41;21.10;99.90
26703;DHT22;14316;51.074;3.704;2022-07-12T06:16:06;21.00;99.90
26703;DHT22;14316;51.074;3.704;2022-07-12T06:18:35;21.00;99.90
26703;DHT22;14316;51.074;3.704;2022-07-12T06:21:01;21.00;99.90
26703;DHT22;14316;51.074;3.704;2022-07-12T06:23:27;21.00;99.90
26703;DHT22;14316;51.074;3.704;2022-07-12T06:25:52;21.00;99.90
26703;DHT22;14316;51.074;3.704;2022-07-12T06:28:18;21.00;99.90
26703;DHT22;14316;51.074;3.704;2022-07-12T06:30:43;21.10;99.90
26703;DHT22;14316;51.074;3.704;2022-07-12T06:33:09;21.00;99.90
26703;DHT22;14316;51.074;3.704;2022-07-12T06:35:35;21.10;99.90
26703;DHT22;14316;51.074;3.704;2022-07-12T06:38:01;21.20;99.90
26703;DHT22;14316;51.074;3.704;2022-07-12T06:40:26;21.10;99.90
26703;DHT22;14316;51.074;3.704;2022-07-12T06:42:52;21.20;99.90
26703;DHT22;14316;51.074;3.704;2022-07-12T06:45:17;21.20;99.90
26703;DHT22;14316;51.074;3.704;2022-07-12T06:47:43;21.00;99.90
26703;DHT22;14316;51.074;3.704;2022-07-12T06:50:09;20.90;99.90
26703;DHT22;14316;51.074;3.704;2022-07-12T06:52:35;21.00;99.90
26703;DHT22;14316;51.074;3.704;2022-07-12T06:55:00;21.00;99.90
26703;DHT22;14316;51.074;3.704;2022-07-12T06:57:26;21.10;99.90
26703;DHT22;14316;51.074;3.704;2022-07-12T06:59:53;21.30;99.90
26703;DHT22;14316;51.074;3.704;2022-07-12T07:02:18;21.40;99.90
26703;DHT22;14316;51.074;3.704;2022-07-12T07:04:44;21.50;99.90
26703;DHT22;14316;51.074;3.704;2022-07-12T07:07:09;21.60;99.90
26703;DHT22;14316;51.074;3.704;2022-07-12T07:09:35;21.70;99.90
26703;DHT22;14316;51.074;3.704;2022-07-12T07:12:00;22.10;99.90
26703;DHT22;14316;51.074;3.704;2022-07-12T07:14:26;22.20;99.90
26703;DHT22;14316;51.074;3.704;2022-07-12T07:16:52;22.30;99.90
26703;DHT22;14316;51.074;3.704;2022-07-12T07:19:18;22.30;99.90
26703;DHT22;14316;51.074;3.704;2022-07-12T07:21:43;22.40;99.90
26703;DHT22;14316;51.074;3.704;2022-07-12T07:24:13;22.50;99.90
26703;DHT22;14316;51.074;3.704;2022-07-12T07:26:38;22.40;99.90
26703;DHT22;14316;51.074;3.704;2022-07-12T07:29:04;22.40;99.90
26703;DHT22;14316;51.074;3.704;2022-07-12T07:31:48;22.30;99.90
26703;DHT22;14316;51.074;3.704;2022-07-12T07:34:13;22.30;99.90
26703;DHT22;14316;51.074;3.704;2022-07-12T07:36:39;22.20;99.90
26703;DHT22;14316;51.074;3.704;2022-07-12T07:39:05;22.30;99.90
26703;DHT22;14316;51.074;3.704;2022-07-12T07:41:30;22.30;99.90
26703;DHT22;14316;51.074;3.704;2022-07-12T07:43:56;22.40;99.90
26703;DHT22;14316;51.074;3.704;2022-07-12T07:46:22;22.10;99.90
26703;DHT22;14316;51.074;3.704;2022-07-12T07:48:51;22.30;99.90
26703;DHT22;14316;51.074;3.704;2022-07-12T07:51:16;22.40;99.90
26703;DHT22;14316;51.074;3.704;2022-07-12T07:53:42;22.40;99.90
26703;DHT22;14316;51.074;3.704;2022-07-12T07:56:08;22.50;99.90
26703;DHT22;14316;51.074;3.704;2022-07-12T07:58:33;22.40;99.90
26703;DHT22;14316;51.074;3.704;2022-07-12T08:00:59;22.30;99.90
26703;DHT22;14316;51.074;3.704;2022-07-12T08:03:24;22.40;99.90
26703;DHT22;14316;51.074;3.704;2022-07-12T08:05:50;22.30;99.90
26703;DHT22;14316;51.074;3.704;2022-07-12T08:08:17;22.40;99.90
26703;DHT22;14316;51.074;3.704;2022-07-12T08:10:45;22.70;99.90
26703;DHT22;14316;51.074;3.704;2022-07-12T08:13:11;22.70;99.90
26703;DHT22;14316;51.074;3.704;2022-07-12T08:15:49;23.40;99.90
26703;DHT22;14316;51.074;3.704;2022-07-12T08:18:14;22.60;99.90
26703;DHT22;14316;51.074;3.704;2022-07-12T08:20:40;22.80;99.90
26703;DHT22;14316;51.074;3.704;2022-07-12T08:23:06;22.80;99.90
26703;DHT22;14316;51.074;3.704;2022-07-12T08:25:31;22.80;99.90
26703;DHT22;14316;51.074;3.704;2022-07-12T08:27:57;23.20;99.90
26703;DHT22;14316;51.074;3.704;2022-07-12T08:30:22;23.50;99.90
26703;DHT22;14316;51.074;3.704;2022-07-12T08:32:48;23.70;99.90
26703;DHT22;14316;51.074;3.704;2022-07-12T08:35:15;23.70;99.90
26703;DHT22;14316;51.074;3.704;2022-07-12T08:37:41;24.00;99.90
26703;DHT22;14316;51.074;3.704;2022-07-12T08:40:07;23.90;99.90
26703;DHT22;14316;51.074;3.704;2022-07-12T08:42:32;23.90;99.90
26703;DHT22;14316;51.074;3.704;2022-07-12T08:44:59;23.90;99.90
26703;DHT22;14316;51.074;3.704;2022-07-12T08:47:24;24.00;99.90
26703;DHT22;14316;51.074;3.704;2022-07-12T08:52:38;24.30;99.90
26703;DHT22;14316;51.074;3.704;2022-07-12T08:55:11;24.20;99.90
26703;DHT22;14316;51.074;3.704;2022-07-12T08:57:40;24.20;99.90
26703;DHT22;14316;51.074;3.704;2022-07-12T09:00:06;24.20;99.90
26703;DHT22;14316;51.074;3.704;2022-07-12T09:02:47;24.00;99.90
26703;DHT22;14316;51.074;3.704;2022-07-12T09:05:14;24.20;99.90
26703;DHT22;14316;51.074;3.704;2022-07-12T09:07:40;24.10;99.90
26703;DHT22;14316;51.074;3.704;2022-07-12T09:10:06;24.30;99.90
26703;DHT22;14316;51.074;3.704;2022-07-12T09:12:35;24.90;99.90
26703;DHT22;14316;51.074;3.704;2022-07-12T09:15:17;25.40;99.90
26703;DHT22;14316;51.074;3.704;2022-07-12T09:17:58;26.00;99.90
26703;DHT22;14316;51.074;3.704;2022-07-12T09:20:27;26.60;99.90
26703;DHT22;14316;51.074;3.704;2022-07-12T09:22:59;27.00;99.90
26703;DHT22;14316;51.074;3.704;2022-07-12T09:25:26;27.10;99.90
26703;DHT22;14316;51.074;3.704;2022-07-12T09:27:52;27.30;99.90
26703;DHT22;14316;51.074;3.704;2022-07-12T09:30:19;27.20;99.90
26703;DHT22;14316;51.074;3.704;2022-07-12T09:32:48;27.50;99.90
26703;DHT22;14316;51.074;3.704;2022-07-12T09:35:33;27.70;99.90
26703;DHT22;14316;51.074;3.704;2022-07-12T09:38:17;28.20;99.90
26703;DHT22;14316;51.074;3.704;2022-07-12T09:40:42;28.30;99.90
26703;DHT22;14316;51.074;3.704;2022-07-12T09:43:08;28.40;99.90
26703;DHT22;14316;51.074;3.704;2022-07-12T09:45:35;28.50;99.90
26703;DHT22;14316;51.074;3.704;2022-07-12T09:48:01;28.50;99.90
26703;DHT22;14316;51.074;3.704;2022-07-12T09:50:28;27.90;99.90
26703;DHT22;14316;51.074;3.704;2022-07-12T09:52:54;27.50;99.90
26703;DHT22;14316;51.074;3.704;2022-07-12T09:55:22;27.10;99.90
26703;DHT22;14316;51.074;3.704;2022-07-12T09:57:50;27.30;99.90
26703;DHT22;14316;51.074;3.704;2022-07-12T10:00:21;27.90;99.90
26703;DHT22;14316;51.074;3.704;2022-07-12T10:02:46;28.00;99.90
26703;DHT22;14316;51.074;3.704;2022-07-12T10:05:16;28.70;99.90
26703;DHT22;14316;51.074;3.704;2022-07-12T10:07:41;28.70;99.90
26703;DHT22;14316;51.074;3.704;2022-07-12T10:10:11;28.90;99.90
26703;DHT22;14316;51.074;3.704;2022-07-12T10:12:37;29.00;99.90
26703;DHT22;14316;51.074;3.704;2022-07-12T10:15:04;28.40;99.90
26703;DHT22;14316;51.074;3.704;2022-07-12T10:17:30;29.20;99.90
26703;DHT22;14316;51.074;3.704;2022-07-12T10:22:43;29.50;99.30
26703;DHT22;14316;51.074;3.704;2022-07-12T10:27:53;30.40;99.90
26703;DHT22;14316;51.074;3.704;2022-07-12T10:30:19;31.50;98.50
26703;DHT22;14316;51.074;3.704;2022-07-12T10:32:46;30.90;95.80
26703;DHT22;14316;51.074;3.704;2022-07-12T10:35:15;30.00;94.70
26703;DHT22;14316;51.074;3.704;2022-07-12T10:37:41;31.30;96.10
26703;DHT22;14316;51.074;3.704;2022-07-12T10:40:14;32.20;95.20
26703;DHT22;14316;51.074;3.704;2022-07-12T10:42:41;33.20;93.80
26703;DHT22;14316;51.074;3.704;2022-07-12T10:45:29;34.20;92.10
26703;DHT22;14316;51.074;3.704;2022-07-12T10:47:55;33.70;91.00
26703;DHT22;14316;51.074;3.704;2022-07-12T10:58:31;36.90;80.70
26703;DHT22;14316;51.074;3.704;2022-07-12T11:00:58;37.20;74.10
26703;DHT22;14316;51.074;3.704;2022-07-12T11:03:29;36.60;69.00
26703;DHT22;14316;51.074;3.704;2022-07-12T11:06:04;37.60;69.80
26703;DHT22;14316;51.074;3.704;2022-07-12T11:08:30;37.70;67.80
26703;DHT22;14316;51.074;3.704;2022-07-12T11:10:56;38.60;66.40
26703;DHT22;14316;51.074;3.704;2022-07-12T11:13:22;38.00;64.70
26703;DHT22;14316;51.074;3.704;2022-07-12T11:15:56;36.40;64.50
26703;DHT22;14316;51.074;3.704;2022-07-12T11:18:29;35.60;65.60
26703;DHT22;14316;51.074;3.704;2022-07-12T11:20:56;35.80;65.90
26703;DHT22;14316;51.074;3.704;2022-07-12T11:23:25;33.60;68.60
26703;DHT22;14316;51.074;3.704;2022-07-12T11:25:55;33.80;69.10
26703;DHT22;14316;51.074;3.704;2022-07-12T11:28:21;34.40;68.40
26703;DHT22;14316;51.074;3.704;2022-07-12T11:30:51;33.40;67.20
26703;DHT22;14316;51.074;3.704;2022-07-12T11:33:17;33.70;68.10
26703;DHT22;14316;51.074;3.704;2022-07-12T11:35:44;34.10;65.90
26703;DHT22;14316;51.074;3.704;2022-07-12T11:38:10;34.70;65.50
26703;DHT22;14316;51.074;3.704;2022-07-12T11:40:36;37.60;63.80
26703;DHT22;14316;51.074;3.704;2022-07-12T11:43:02;36.10;61.60
26703;DHT22;14316;51.074;3.704;2022-07-12T11:45:29;34.40;63.30
26703;DHT22;14316;51.074;3.704;2022-07-12T11:47:55;35.30;62.90
26703;DHT22;14316;51.074;3.704;2022-07-12T11:50:21;36.70;59.00
26703;DHT22;14316;51.074;3.704;2022-07-12T11:52:47;36.30;59.30
26703;DHT22;14316;51.074;3.704;2022-07-12T11:55:13;34.90;59.40
26703;DHT22;14316;51.074;3.704;2022-07-12T11:57:39;34.50;59.60
26703;DHT22;14316;51.074;3.704;2022-07-12T12:00:18;35.60;59.90
26703;DHT22;14316;51.074;3.704;2022-07-12T12:02:44;38.90;57.90
26703;DHT22;14316;51.074;3.704;2022-07-12T12:05:09;42.20;52.40
26703;DHT22;14316;51.074;3.704;2022-07-12T12:07:36;42.20;50.40
26703;DHT22;14316;51.074;3.704;2022-07-12T12:10:11;42.70;48.10
26703;DHT22;14316;51.074;3.704;2022-07-12T12:12:45;43.60;46.70
26703;DHT22;14316;51.074;3.704;2022-07-12T12:15:12;42.80;43.20
26703;DHT22;14316;51.074;3.704;2022-07-12T12:17:42;41.40;44.50
26703;DHT22;14316;51.074;3.704;2022-07-12T12:20:22;41.00;45.00
26703;DHT22;14316;51.074;3.704;2022-07-12T12:22:51;42.40;44.40
26703;DHT22;14316;51.074;3.704;2022-07-12T12:25:18;44.60;42.70
26703;DHT22;14316;51.074;3.704;2022-07-12T12:27:47;43.10;41.10
26703;DHT22;14316;51.074;3.704;2022-07-12T12:30:14;40.50;43.80
26703;DHT22;14316;51.074;3.704;2022-07-12T12:35:16;40.20;41.20
26703;DHT22;14316;51.074;3.704;2022-07-12T12:37:52;39.90;38.90
26703;DHT22;14316;51.074;3.704;2022-07-12T12:40:19;40.20;39.40
26703;DHT22;14316;51.074;3.704;2022-07-12T12:42:45;42.60;39.80
26703;DHT22;14316;51.074;3.704;2022-07-12T12:45:21;42.70;40.00
26703;DHT22;14316;51.074;3.704;2022-07-12T12:47:57;43.80;38.30
26703;DHT22;14316;51.074;3.704;2022-07-12T12:55:37;41.00;40.00
26703;DHT22;14316;51.074;3.704;2022-07-12T12:58:03;41.90;39.20
26703;DHT22;14316;51.074;3.704;2022-07-12T13:00:29;40.40;39.80
26703;DHT22;14316;51.074;3.704;2022-07-12T13:02:56;43.10;38.50
26703;DHT22;14316;51.074;3.704;2022-07-12T13:05:25;42.60;38.80
26703;DHT22;14316;51.074;3.704;2022-07-12T13:07:51;41.60;38.90
26703;DHT22;14316;51.074;3.704;2022-07-12T13:10:17;42.00;39.10
26703;DHT22;14316;51.074;3.704;2022-07-12T13:12:42;43.60;37.80
26703;DHT22;14316;51.074;3.704;2022-07-12T13:15:08;42.80;37.70
26703;DHT22;14316;51.074;3.704;2022-07-12T13:17:34;41.10;38.70
26703;DHT22;14316;51.074;3.704;2022-07-12T13:20:00;39.00;38.70
26703;DHT22;14316;51.074;3.704;2022-07-12T13:22:26;37.20;40.10
26703;DHT22;14316;51.074;3.704;2022-07-12T13:24:51;36.70;40.10
26703;DHT22;14316;51.074;3.704;2022-07-12T13:27:17;36.90;38.70
26703;DHT22;14316;51.074;3.704;2022-07-12T13:29:43;38.80;38.10
26703;DHT22;14316;51.074;3.704;2022-07-12T13:32:09;39.80;37.70
26703;DHT22;14316;51.074;3.704;2022-07-12T13:34:35;40.60;38.70
26703;DHT22;14316;51.074;3.704;2022-07-12T13:37:00;39.70;39.60
26703;DHT22;14316;51.074;3.704;2022-07-12T13:39:26;39.40;38.80
26703;DHT22;14316;51.074;3.704;2022-07-12T13:42:10;38.80;40.00
26703;DHT22;14316;51.074;3.704;2022-07-12T13:44:36;36.00;42.50
26703;DHT22;14316;51.074;3.704;2022-07-12T13:47:02;36.60;43.30
26703;DHT22;14316;51.074;3.704;2022-07-12T13:49:28;38.00;41.00
26703;DHT22;14316;51.074;3.704;2022-07-12T13:51:54;37.30;42.60
26703;DHT22;14316;51.074;3.704;2022-07-12T13:54:20;36.30;42.70
26703;DHT22;14316;51.074;3.704;2022-07-12T13:56:46;36.10;42.00
26703;DHT22;14316;51.074;3.704;2022-07-12T13:59:14;35.80;42.20
26703;DHT22;14316;51.074;3.704;2022-07-12T14:01:40;37.30;40.50
26703;DHT22;14316;51.074;3.704;2022-07-12T14:04:06;38.00;40.00
26703;DHT22;14316;51.074;3.704;2022-07-12T14:06:32;39.40;39.30
26703;DHT22;14316;51.074;3.704;2022-07-12T14:08:57;41.00;38.80
26703;DHT22;14316;51.074;3.704;2022-07-12T14:11:23;43.10;37.40
26703;DHT22;14316;51.074;3.704;2022-07-12T14:13:50;41.30;38.50
26703;DHT22;14316;51.074;3.704;2022-07-12T14:16:16;40.50;39.50
26703;DHT22;14316;51.074;3.704;2022-07-12T14:18:44;39.10;40.70
26703;DHT22;14316;51.074;3.704;2022-07-12T14:21:09;38.10;41.60
26703;DHT22;14316;51.074;3.704;2022-07-12T14:23:36;36.30;43.20
26703;DHT22;14316;51.074;3.704;2022-07-12T14:26:01;36.30;43.10
26703;DHT22;14316;51.074;3.704;2022-07-12T14:28:27;35.60;43.50
26703;DHT22;14316;51.074;3.704;2022-07-12T14:30:53;35.30;43.30
26703;DHT22;14316;51.074;3.704;2022-07-12T14:33:19;34.50;44.50
26703;DHT22;14316;51.074;3.704;2022-07-12T14:35:45;35.10;44.10
26703;DHT22;14316;51.074;3.704;2022-07-12T14:38:11;35.30;44.30
26703;DHT22;14316;51.074;3.704;2022-07-12T14:40:37;35.00;44.90
26703;DHT22;14316;51.074;3.704;2022-07-12T14:43:03;33.00;46.70
26703;DHT22;14316;51.074;3.704;2022-07-12T14:45:29;31.70;47.80
26703;DHT22;14316;51.074;3.704;2022-07-12T14:47:54;31.90;48.20
26703;DHT22;14316;51.074;3.704;2022-07-12T14:50:20;32.60;46.90
26703;DHT22;14316;51.074;3.704;2022-07-12T14:52:45;33.60;45.30
26703;DHT22;14316;51.074;3.704;2022-07-12T14:55:12;33.60;45.60
26703;DHT22;14316;51.074;3.704;2022-07-12T14:57:38;33.40;46.40
26703;DHT22;14316;51.074;3.704;2022-07-12T15:00:05;33.00;47.60
26703;DHT22;14316;51.074;3.704;2022-07-12T15:02:32;32.70;47.70
26703;DHT22;14316;51.074;3.704;2022-07-12T15:04:57;32.30;48.10
26703;DHT22;14316;51.074;3.704;2022-07-12T15:07:28;32.10;48.80
26703;DHT22;14316;51.074;3.704;2022-07-12T15:09:53;32.70;47.90
26703;DHT22;14316;51.074;3.704;2022-07-12T15:12:19;33.70;46.60
26703;DHT22;14316;51.074;3.704;2022-07-12T15:14:45;35.00;45.40
26703;DHT22;14316;51.074;3.704;2022-07-12T15:17:10;36.20;44.80
26703;DHT22;14316;51.074;3.704;2022-07-12T15:19:37;37.10;44.30
26703;DHT22;14316;51.074;3.704;2022-07-12T15:22:02;37.20;43.30
26703;DHT22;14316;51.074;3.704;2022-07-12T15:24:28;36.20;44.80
26703;DHT22;14316;51.074;3.704;2022-07-12T15:26:54;35.80;44.80
26703;DHT22;14316;51.074;3.704;2022-07-12T15:29:20;36.40;44.30
26703;DHT22;14316;51.074;3.704;2022-07-12T15:31:46;36.90;44.30
26703;DHT22;14316;51.074;3.704;2022-07-12T15:34:12;34.90;46.10
26703;DHT22;14316;51.074;3.704;2022-07-12T15:36:37;34.30;46.20
26703;DHT22;14316;51.074;3.704;2022-07-12T15:39:03;33.90;46.40
26703;DHT22;14316;51.074;3.704;2022-07-12T15:41:28;33.80;46.30
26703;DHT22;14316;51.074;3.704;2022-07-12T15:43:55;33.40;46.20
26703;DHT22;14316;51.074;3.704;2022-07-12T15:46:21;32.50;47.20
26703;DHT22;14316;51.074;3.704;2022-07-12T15:48:46;31.60;48.00
26703;DHT22;14316;51.074;3.704;2022-07-12T15:51:12;31.30;47.70